createdAt,value
2023-05-19T00:07:18.255Z,16.08
2023-05-19T00:11:20.291Z,13.35
2023-05-19T00:15:22.585Z,21.08
2023-05-19T00:19:27.584Z,16.27
2023-05-19T00:23:30.635Z,16.92
2023-05-19T00:27:32.180Z,10.13
2023-05-19T00:31:33.886Z,24.30
2023-05-19T00:35:35.552Z,13.10
2023-05-19T00:39:38.454Z,16.80
2023-05-19T00:43:40.060Z,17.70
2023-05-19T00:47:41.669Z,12.07
2023-05-19T00:51:43.279Z,8.40
2023-05-19T00:55:47.647Z,9.10
2023-05-19T00:59:49.243Z,15.02
2023-05-19T01:03:50.992Z,11.93
2023-05-19T01:07:52.671Z,13.18
2023-05-19T01:11:55.596Z,15.48
2023-05-19T01:16:05.523Z,11.98
2023-05-19T01:20:14.935Z,11.52
2023-05-19T01:24:41.370Z,12.32
2023-05-19T01:29:07.576Z,16.73
2023-05-19T01:33:13.473Z,16.40
2023-05-19T01:37:16.121Z,9.43
2023-05-19T01:41:18.884Z,12.73
2023-05-19T01:45:21.292Z,14.70
2023-05-19T01:49:24.161Z,16.40
2023-05-19T01:53:26.032Z,12.48
2023-05-19T01:57:33.622Z,15.38
2023-05-19T02:01:48.429Z,10.48
2023-05-19T02:05:59.241Z,13.55
2023-05-19T02:10:05.715Z,10.80
2023-05-19T02:14:21.267Z,11.15
2023-05-19T02:18:23.441Z,11.65
2023-05-19T02:22:26.343Z,11.85
2023-05-19T02:26:28.145Z,13.88
2023-05-19T02:30:29.988Z,10.50
2023-05-19T02:34:31.635Z,12.73
2023-05-19T02:38:34.525Z,10.98
2023-05-19T02:42:36.057Z,14.77
2023-05-19T02:46:37.703Z,19.40
2023-05-19T02:50:39.297Z,10.20
2023-05-19T02:54:42.305Z,10.55
2023-05-19T02:58:44.069Z,10.38
2023-05-19T03:02:45.736Z,12.60
2023-05-19T03:06:47.327Z,20.23
2023-05-19T03:10:50.196Z,12.63
2023-05-19T03:14:51.799Z,9.80
2023-05-19T03:18:53.369Z,12.00
2023-05-19T03:22:54.912Z,9.07
2023-05-19T03:26:57.790Z,9.02
2023-05-19T03:30:59.350Z,12.07
2023-05-19T03:35:00.880Z,12.18
2023-05-19T03:39:02.406Z,16.58
2023-05-19T03:43:05.306Z,10.52
2023-05-19T03:47:07.118Z,16.83
2023-05-19T03:51:14.515Z,11.20
2023-05-19T03:55:16.052Z,13.75
2023-05-19T03:59:18.938Z,7.35
2023-05-19T04:03:20.626Z,12.80
2023-05-19T04:07:22.372Z,13.88
2023-05-19T04:11:23.903Z,12.95
2023-05-19T04:15:26.805Z,11.65
2023-05-19T04:19:28.383Z,14.95
2023-05-19T04:23:29.959Z,12.45
2023-05-19T04:27:31.481Z,15.10
2023-05-19T04:31:34.619Z,12.10
2023-05-19T04:39:37.622Z,17.80
2023-05-19T04:43:39.207Z,8.48
2023-05-19T04:47:42.245Z,16.00
2023-05-19T04:55:45.229Z,11.48
2023-05-19T04:59:46.766Z,11.68
2023-05-19T05:03:49.683Z,9.65
2023-05-19T05:07:51.303Z,13.45
2023-05-19T05:11:53.566Z,14.85
2023-05-19T05:15:55.671Z,19.00
2023-05-19T05:19:59.313Z,10.07
2023-05-19T05:24:01.444Z,12.23
2023-05-19T05:28:03.014Z,16.45
2023-05-19T05:32:05.266Z,10.45
2023-05-19T05:36:08.915Z,11.20
2023-05-19T05:40:11.385Z,10.60
2023-05-19T05:44:12.999Z,10.07
2023-05-19T05:48:15.342Z,14.45
2023-05-19T05:52:20.996Z,11.50
2023-05-19T05:56:23.080Z,10.25
2023-05-19T06:00:24.632Z,12.98
2023-05-19T06:04:26.166Z,14.35
2023-05-19T06:08:29.160Z,12.35
2023-05-19T06:12:30.758Z,12.38
2023-05-19T06:16:32.399Z,11.68
2023-05-19T06:20:34.176Z,9.48
2023-05-19T06:24:39.372Z,13.70
2023-05-19T06:28:41.148Z,16.85
2023-05-19T06:32:44.546Z,11.57
2023-05-19T06:36:46.121Z,8.65
2023-05-19T06:40:49.006Z,9.38
2023-05-19T06:44:50.983Z,12.75
2023-05-19T06:48:52.504Z,14.05
2023-05-19T06:52:54.291Z,14.57
2023-05-19T06:56:57.166Z,10.15
2023-05-19T07:00:58.688Z,9.95
2023-05-19T07:05:00.396Z,13.00
2023-05-19T07:09:01.923Z,16.90
2023-05-19T07:13:05.064Z,7.95
2023-05-19T07:17:06.594Z,11.43
2023-05-19T07:21:08.149Z,12.80
2023-05-19T07:25:10.204Z,9.00
2023-05-19T07:29:13.085Z,9.10
2023-05-19T07:33:14.659Z,10.25
2023-05-19T07:37:16.312Z,8.38
2023-05-19T07:41:17.828Z,7.93
2023-05-19T07:45:20.780Z,9.90
2023-05-19T07:49:22.351Z,9.50
2023-05-19T07:53:23.956Z,7.93
2023-05-19T07:57:25.518Z,7.55
2023-05-19T08:01:29.649Z,9.38
2023-05-19T08:05:31.181Z,7.43
2023-05-19T08:09:32.786Z,8.63
2023-05-19T08:13:34.424Z,6.13
2023-05-19T08:17:37.391Z,6.50
2023-05-19T08:25:40.325Z,7.80
2023-05-19T08:29:41.931Z,4.72
2023-05-19T08:33:45.073Z,7.00
2023-05-19T08:37:46.621Z,9.10
2023-05-19T08:41:48.214Z,8.52
2023-05-19T08:45:50.139Z,8.73
2023-05-19T08:49:56.025Z,6.78
2023-05-19T08:54:04.490Z,8.18
2023-05-19T08:58:06.318Z,7.85
2023-05-19T09:02:10.617Z,8.68
2023-05-19T09:06:13.498Z,7.72
2023-05-19T09:14:16.417Z,8.45
2023-05-19T09:18:17.993Z,5.97
2023-05-19T09:22:21.012Z,11.10
2023-05-19T09:26:22.537Z,11.60
2023-05-19T09:30:24.286Z,7.22
2023-05-19T09:34:26.169Z,11.18
2023-05-19T09:38:29.635Z,9.65
2023-05-19T09:42:37.646Z,13.88
2023-05-19T09:46:47.477Z,8.57
2023-05-19T09:50:49.364Z,4.97
2023-05-19T09:54:53.117Z,5.70
2023-05-19T09:58:54.726Z,14.10
2023-05-19T10:02:56.851Z,4.85
2023-05-19T10:06:59.188Z,11.60
2023-05-19T10:11:03.080Z,6.10
2023-05-19T10:15:05.970Z,7.45
2023-05-19T10:19:07.880Z,5.07
2023-05-19T10:23:09.735Z,5.40
2023-05-19T10:27:14.859Z,6.25
2023-05-19T10:31:21.503Z,7.22
2023-05-19T10:35:37.029Z,5.85
2023-05-19T10:39:43.156Z,7.50
2023-05-19T10:43:59.703Z,4.63
2023-05-19T10:48:01.403Z,7.25
2023-05-19T10:52:03.430Z,6.38
2023-05-19T10:56:05.558Z,8.23
2023-05-19T11:00:27.742Z,4.07
2023-05-19T11:04:40.027Z,5.40
2023-05-19T11:08:41.624Z,6.57
2023-05-19T11:12:45.538Z,4.07
2023-05-19T11:16:51.321Z,5.80
2023-05-19T11:20:56.161Z,7.15
2023-05-19T11:24:57.999Z,5.40
2023-05-19T11:29:00.290Z,7.75
2023-05-19T11:33:03.725Z,7.43
2023-05-19T11:37:06.340Z,7.38
2023-05-19T11:41:07.887Z,4.68
2023-05-19T11:45:10.270Z,4.63
2023-05-19T11:49:14.884Z,3.57
2023-05-19T11:53:18.116Z,4.47
2023-05-19T11:57:20.238Z,7.25
2023-05-19T12:01:23.826Z,4.47
2023-05-19T12:05:27.259Z,6.72
2023-05-19T12:09:28.857Z,3.38
2023-05-19T12:13:30.436Z,5.85
2023-05-19T12:17:32.731Z,3.10
2023-05-19T12:21:36.167Z,4.05
2023-05-19T12:25:37.943Z,3.88
2023-05-19T12:29:40.336Z,5.10
2023-05-19T12:33:42.027Z,5.95
2023-05-19T12:37:44.956Z,5.35
2023-05-19T12:45:48.095Z,4.05
2023-05-19T12:49:56.750Z,5.93
2023-05-19T12:54:02.495Z,4.47
2023-05-19T12:58:06.992Z,6.20
2023-05-19T13:02:08.861Z,5.65
2023-05-19T13:06:10.744Z,5.07
2023-05-19T13:10:13.645Z,8.57
2023-05-19T13:18:17.533Z,5.22
2023-05-19T13:22:19.156Z,5.97
2023-05-19T13:26:22.037Z,5.13
2023-05-19T13:34:24.984Z,4.03
2023-05-19T13:38:26.572Z,6.50
2023-05-19T13:42:29.482Z,7.00
2023-05-19T13:50:47.424Z,6.93
2023-05-19T13:54:49.484Z,4.63
2023-05-19T13:58:52.393Z,3.73
2023-05-19T14:06:55.603Z,5.43
2023-05-19T14:10:57.186Z,5.63
2023-05-19T14:15:00.924Z,7.38
2023-05-19T14:19:02.481Z,4.13
2023-05-19T14:23:04.086Z,4.75
2023-05-19T14:27:06.066Z,6.22
2023-05-19T14:31:12.468Z,5.47
2023-05-19T14:35:14.173Z,12.52
2023-05-19T14:39:15.797Z,8.25
2023-05-19T14:43:17.355Z,8.00
2023-05-19T14:47:20.284Z,5.97
2023-05-19T14:55:23.325Z,4.90
2023-05-19T14:59:25.007Z,7.38
2023-05-19T15:03:27.935Z,5.15
2023-05-19T15:11:30.955Z,7.25
2023-05-19T15:15:32.542Z,8.52
2023-05-19T15:19:35.598Z,7.63
2023-05-19T15:27:38.627Z,5.30
2023-05-19T15:31:40.289Z,7.20
2023-05-19T15:35:43.315Z,4.53
2023-05-19T15:39:45.964Z,4.30
2023-05-19T15:43:47.495Z,3.63
2023-05-19T15:47:49.120Z,6.13
2023-05-19T15:51:52.040Z,6.70
2023-05-19T15:59:54.984Z,5.10
2023-05-19T16:03:56.898Z,6.57
2023-05-19T16:07:59.871Z,9.18
2023-05-19T16:16:02.949Z,5.03
2023-05-19T16:20:05.735Z,6.50
2023-05-19T16:24:08.660Z,5.05
2023-05-19T16:32:11.742Z,6.00
2023-05-19T16:36:13.400Z,4.72
2023-05-19T16:40:16.606Z,7.88
2023-05-19T16:44:18.193Z,5.68
2023-05-19T16:48:19.805Z,5.00
2023-05-19T16:52:21.419Z,4.72
2023-05-19T16:56:24.339Z,5.53
2023-05-19T17:00:25.934Z,4.82
2023-05-19T17:04:29.451Z,6.70
2023-05-19T17:08:32.282Z,5.25
2023-05-19T17:12:35.206Z,6.50
2023-05-19T17:16:37.036Z,6.57
2023-05-19T17:20:38.624Z,4.65
2023-05-19T17:24:40.214Z,5.45
2023-05-19T17:28:43.119Z,7.35
2023-05-19T17:32:44.789Z,12.60
2023-05-19T17:36:46.457Z,6.57
2023-05-19T17:40:48.007Z,6.18
2023-05-19T17:44:50.898Z,11.32
2023-05-19T17:48:52.456Z,6.03
2023-05-19T17:52:54.522Z,9.30
2023-05-19T17:56:58.512Z,5.68
2023-05-19T18:01:01.780Z,7.10
2023-05-19T18:05:04.310Z,7.38
2023-05-19T18:09:06.850Z,5.28
2023-05-19T18:13:10.298Z,7.40
2023-05-19T18:17:13.275Z,7.50
2023-05-19T18:21:14.834Z,6.82
2023-05-19T18:25:16.599Z,6.60
2023-05-19T18:29:18.142Z,7.25
2023-05-19T18:33:22.266Z,6.30
2023-05-19T18:37:26.694Z,5.55
2023-05-19T18:41:28.404Z,10.23
2023-05-19T18:45:29.959Z,7.13
2023-05-19T18:49:33.023Z,8.00
2023-05-19T18:57:35.992Z,7.75
2023-05-19T19:01:37.684Z,8.32
2023-05-19T19:05:40.736Z,7.18
2023-05-19T19:09:42.257Z,6.88
2023-05-19T19:13:43.799Z,8.65
2023-05-19T19:17:45.359Z,7.32
2023-05-19T19:21:48.257Z,8.85
2023-05-19T19:25:50.078Z,7.38
2023-05-19T19:29:51.665Z,7.00
2023-05-19T19:33:53.206Z,9.18
2023-05-19T19:37:56.106Z,8.05
2023-05-19T19:41:57.689Z,8.18
2023-05-19T19:45:59.661Z,8.35
2023-05-19T19:50:01.196Z,8.30
2023-05-19T19:54:04.331Z,11.80
2023-05-19T20:02:07.240Z,9.82
2023-05-19T20:06:08.842Z,9.85
2023-05-19T20:10:12.079Z,9.90
2023-05-19T20:14:13.603Z,9.35
2023-05-19T20:18:15.312Z,10.07
2023-05-19T20:22:16.996Z,11.88
2023-05-19T20:26:19.863Z,8.35
2023-05-19T20:30:21.488Z,7.00
2023-05-19T20:34:23.039Z,8.27
2023-05-19T20:38:24.631Z,10.07
2023-05-19T20:42:27.536Z,11.30
2023-05-19T20:46:29.170Z,6.85
2023-05-19T20:50:30.836Z,9.10
2023-05-19T20:54:32.514Z,8.73
2023-05-19T20:58:35.411Z,10.35
2023-05-19T21:02:37.095Z,9.48
2023-05-19T21:06:38.693Z,8.30
2023-05-19T21:10:40.276Z,8.75
2023-05-19T21:14:43.148Z,11.05
2023-05-19T21:18:44.718Z,14.95
2023-05-19T21:22:46.320Z,9.85
2023-05-19T21:26:47.846Z,10.43
2023-05-19T21:30:50.750Z,11.10
2023-05-19T21:34:52.285Z,10.68
2023-05-19T21:38:53.838Z,13.25
2023-05-19T21:42:55.352Z,9.40
2023-05-19T21:46:58.387Z,11.00
2023-05-19T21:50:59.955Z,10.35
2023-05-19T21:55:01.470Z,10.05
2023-05-19T21:59:03.266Z,9.50
2023-05-19T22:03:06.170Z,9.52
2023-05-19T22:07:07.732Z,9.73
2023-05-19T22:11:09.274Z,9.25
2023-05-19T22:15:11.707Z,12.35
2023-05-19T22:19:14.684Z,10.52
2023-05-19T22:23:16.249Z,10.20
2023-05-19T22:27:18.343Z,10.20
2023-05-19T22:31:19.867Z,10.20
2023-05-19T22:35:22.924Z,8.45
2023-05-19T22:43:25.793Z,8.93
2023-05-19T22:47:27.427Z,8.35
2023-05-19T22:51:30.287Z,9.25
2023-05-19T22:55:32.023Z,12.57
2023-05-19T22:59:33.704Z,10.07
2023-05-19T23:03:35.221Z,11.30
2023-05-19T23:07:38.095Z,10.10
2023-05-19T23:11:39.588Z,12.80
2023-05-19T23:15:41.096Z,9.75
2023-05-19T23:19:42.597Z,10.80
2023-05-19T23:23:45.516Z,13.00
2023-05-19T23:27:47.073Z,11.02
2023-05-19T23:31:48.800Z,11.95
2023-05-19T23:35:50.718Z,10.93
2023-05-19T23:39:53.545Z,11.57
2023-05-19T23:43:55.429Z,12.07
2023-05-19T23:47:57.072Z,11.35
2023-05-19T23:51:58.576Z,13.57
2023-05-19T23:56:01.818Z,11.05
